createdAt,value
2023-02-19T00:00:09.514Z,60.31
2023-02-19T00:02:47.931Z,61.38
2023-02-19T00:05:19.578Z,60.30
2023-02-19T00:07:51.193Z,59.21
2023-02-19T00:10:22.859Z,62.47
2023-02-19T00:12:54.461Z,60.51
2023-02-19T00:15:26.142Z,60.58
2023-02-19T00:17:57.790Z,62.15
2023-02-19T00:20:29.415Z,62.67
2023-02-19T00:23:01.129Z,62.83
2023-02-19T00:25:37.059Z,62.09
2023-02-19T00:28:08.663Z,63.20
2023-02-19T00:30:40.372Z,62.56
2023-02-19T00:33:11.972Z,62.29
2023-02-19T00:35:43.586Z,61.44
2023-02-19T00:38:15.199Z,61.21
2023-02-19T00:40:46.789Z,61.90
2023-02-19T00:43:19.468Z,62.31
2023-02-19T00:45:51.105Z,62.79
2023-02-19T00:48:22.757Z,62.25
2023-02-19T00:50:54.375Z,62.97
2023-02-19T00:53:26.213Z,63.88
2023-02-19T00:55:57.843Z,64.27
2023-02-19T00:58:29.594Z,63.80
2023-02-19T01:01:01.342Z,64.64
2023-02-19T01:03:37.433Z,65.57
2023-02-19T01:06:10.798Z,65.56
2023-02-19T01:08:43.198Z,65.81
2023-02-19T01:11:16.082Z,67.21
2023-02-19T01:13:47.936Z,65.60
2023-02-19T01:16:22.904Z,64.51
2023-02-19T01:18:54.640Z,63.56
2023-02-19T01:21:27.749Z,63.74
2023-02-19T01:23:59.530Z,63.94
2023-02-19T01:26:33.277Z,62.66
2023-02-19T01:29:04.897Z,62.87
2023-02-19T01:31:36.802Z,62.26
2023-02-19T01:34:11.126Z,62.68
2023-02-19T01:36:42.755Z,63.84
2023-02-19T01:39:14.443Z,65.02
2023-02-19T01:41:46.057Z,65.13
2023-02-19T01:44:17.600Z,65.06
2023-02-19T01:46:49.210Z,64.38
2023-02-19T01:49:29.263Z,62.79
2023-02-19T01:52:13.886Z,63.11
2023-02-19T01:54:49.709Z,63.28
2023-02-19T01:57:28.794Z,63.08
2023-02-19T02:00:15.774Z,63.63
2023-02-19T02:02:53.097Z,63.92
2023-02-19T02:05:31.205Z,63.36
2023-02-19T02:08:04.329Z,64.56
2023-02-19T02:10:36.332Z,63.70
2023-02-19T02:13:07.962Z,63.47
2023-02-19T02:15:51.964Z,62.27
2023-02-19T02:18:46.009Z,63.32
2023-02-19T02:21:46.739Z,63.09
2023-02-19T02:24:45.056Z,63.05
2023-02-19T02:27:28.252Z,63.08
2023-02-19T02:30:12.775Z,63.10
2023-02-19T02:32:53.625Z,64.11
2023-02-19T02:35:37.177Z,65.02
2023-02-19T02:38:13.520Z,63.87
2023-02-19T02:40:46.361Z,64.71
2023-02-19T02:43:18.797Z,64.12
2023-02-19T02:45:50.401Z,65.00
2023-02-19T02:48:45.805Z,65.36
2023-02-19T02:51:25.270Z,65.86
2023-02-19T02:54:12.167Z,64.23
2023-02-19T02:56:48.181Z,66.45
2023-02-19T02:59:25.076Z,65.75
2023-02-19T03:02:17.648Z,68.34
2023-02-19T03:04:52.429Z,71.86
2023-02-19T03:07:29.710Z,69.44
2023-02-19T03:10:07.107Z,66.75
2023-02-19T03:12:42.030Z,67.81
2023-02-19T03:15:17.257Z,66.16
2023-02-19T03:17:56.138Z,65.79
2023-02-19T03:20:31.633Z,66.12
2023-02-19T03:23:06.449Z,67.40
2023-02-19T03:25:39.878Z,67.22
2023-02-19T03:28:15.313Z,68.33
2023-02-19T03:30:53.593Z,69.00
2023-02-19T03:33:29.859Z,70.62
2023-02-19T03:36:07.717Z,68.58
2023-02-19T03:39:06.852Z,65.59
2023-02-19T03:42:02.610Z,65.10
2023-02-19T03:45:02.521Z,66.35
2023-02-19T03:47:58.106Z,64.40
2023-02-19T03:50:49.122Z,65.16
2023-02-19T03:53:37.922Z,66.10
2023-02-19T03:56:35.650Z,64.88
2023-02-19T03:59:17.281Z,64.78
2023-02-19T04:01:52.555Z,65.65
2023-02-19T04:04:37.639Z,65.57
2023-02-19T04:07:10.301Z,64.62
2023-02-19T04:09:49.314Z,63.02
2023-02-19T04:12:24.412Z,63.75
2023-02-19T04:15:05.593Z,68.71
2023-02-19T04:18:14.360Z,66.50
2023-02-19T04:20:48.609Z,65.55
2023-02-19T04:23:26.523Z,66.50
2023-02-19T04:26:01.198Z,66.62
2023-02-19T04:28:33.000Z,65.27
2023-02-19T04:31:04.765Z,65.49
2023-02-19T04:33:37.211Z,64.97
2023-02-19T04:36:10.606Z,65.81
2023-02-19T04:38:42.226Z,65.41
2023-02-19T04:41:13.820Z,65.66
2023-02-19T04:43:45.404Z,66.25
2023-02-19T04:46:17.227Z,66.53
2023-02-19T04:48:48.885Z,65.15
2023-02-19T04:51:20.601Z,65.24
2023-02-19T04:53:52.227Z,65.90
2023-02-19T04:56:24.307Z,65.86
2023-02-19T04:58:56.607Z,66.10
2023-02-19T05:01:28.560Z,65.98
2023-02-19T05:04:00.348Z,65.98
2023-02-19T05:06:31.940Z,68.85
2023-02-19T05:09:04.020Z,69.46
2023-02-19T05:11:35.662Z,72.26
2023-02-19T05:14:07.297Z,67.37
2023-02-19T05:16:38.902Z,66.61
2023-02-19T05:19:13.863Z,65.08
2023-02-19T05:21:45.488Z,64.53
2023-02-19T05:24:17.146Z,66.43
2023-02-19T05:26:48.741Z,67.91
2023-02-19T05:29:20.273Z,66.18
2023-02-19T05:31:51.991Z,65.06
2023-02-19T05:34:23.657Z,64.08
2023-02-19T05:36:55.346Z,63.86
2023-02-19T05:39:27.030Z,64.50
2023-02-19T05:41:58.646Z,63.51
2023-02-19T05:44:30.213Z,62.95
2023-02-19T05:47:01.853Z,66.34
2023-02-19T05:49:33.490Z,65.47
2023-02-19T05:52:05.380Z,64.32
2023-02-19T05:54:36.983Z,64.13
2023-02-19T05:57:08.542Z,65.27
2023-02-19T05:59:40.145Z,65.25
2023-02-19T06:02:11.845Z,64.27
2023-02-19T06:04:43.453Z,65.17
2023-02-19T06:07:15.017Z,64.82
2023-02-19T06:09:49.885Z,64.36
2023-02-19T06:12:21.478Z,65.22
2023-02-19T06:14:53.108Z,66.28
2023-02-19T06:17:24.746Z,65.59
2023-02-19T06:19:56.372Z,65.14
2023-02-19T06:22:28.144Z,65.96
2023-02-19T06:24:59.719Z,66.20
2023-02-19T06:27:31.388Z,65.43
2023-02-19T06:30:03.234Z,65.69
2023-02-19T06:32:34.987Z,66.53
2023-02-19T06:35:06.782Z,66.65
2023-02-19T06:37:38.415Z,66.35
2023-02-19T06:40:10.294Z,65.81
2023-02-19T06:42:41.997Z,65.55
2023-02-19T06:45:13.688Z,66.25
2023-02-19T06:47:45.245Z,67.15
2023-02-19T06:50:17.077Z,67.56
2023-02-19T06:52:48.673Z,66.21
2023-02-19T06:55:20.349Z,65.81
2023-02-19T06:57:52.005Z,66.63
2023-02-19T07:00:23.742Z,65.83
2023-02-19T07:02:55.280Z,65.35
2023-02-19T07:05:27.229Z,65.19
2023-02-19T07:07:58.838Z,65.61
2023-02-19T07:10:30.481Z,65.22
2023-02-19T07:13:02.107Z,63.59
2023-02-19T07:15:33.733Z,62.11
2023-02-19T07:18:05.523Z,61.07
2023-02-19T07:20:37.125Z,61.55
2023-02-19T07:23:09.414Z,61.27
2023-02-19T07:25:41.174Z,62.39
2023-02-19T07:28:12.840Z,63.31
2023-02-19T07:30:44.579Z,62.73
2023-02-19T07:33:16.324Z,62.45
2023-02-19T07:35:50.305Z,61.39
2023-02-19T07:38:24.035Z,62.48
2023-02-19T07:40:58.801Z,62.25
2023-02-19T07:43:34.017Z,64.85
2023-02-19T07:46:06.723Z,64.03
2023-02-19T07:48:40.118Z,64.65
2023-02-19T07:51:15.123Z,64.33
2023-02-19T07:53:47.823Z,64.37
2023-02-19T07:56:20.078Z,63.61
2023-02-19T07:58:51.700Z,62.83
2023-02-19T08:01:24.654Z,63.21
2023-02-19T08:03:56.247Z,62.38
2023-02-19T08:06:27.831Z,63.00
2023-02-19T08:08:59.475Z,62.41
2023-02-19T08:11:31.477Z,63.36
2023-02-19T08:14:03.125Z,64.19
2023-02-19T08:16:43.010Z,62.61
2023-02-19T08:19:15.084Z,63.24
2023-02-19T08:21:46.697Z,63.64
2023-02-19T08:24:18.253Z,62.92
2023-02-19T08:26:49.838Z,62.72
2023-02-19T08:29:21.489Z,60.63
2023-02-19T08:31:53.133Z,60.42
2023-02-19T08:34:24.748Z,60.00
2023-02-19T08:36:56.312Z,59.77
2023-02-19T08:39:27.910Z,59.74
2023-02-19T08:41:59.592Z,59.45
2023-02-19T08:44:32.713Z,59.52
2023-02-19T08:47:04.488Z,59.17
2023-02-19T08:49:36.072Z,60.61
2023-02-19T08:52:07.661Z,60.71
2023-02-19T08:54:39.203Z,58.31
2023-02-19T08:57:10.911Z,57.09
2023-02-19T08:59:42.484Z,57.11
2023-02-19T09:02:14.202Z,55.52
2023-02-19T09:04:45.878Z,54.61
2023-02-19T09:07:19.058Z,53.25
2023-02-19T09:09:50.595Z,41.00
2023-02-19T09:12:22.447Z,41.66
2023-02-19T09:14:54.012Z,42.59
2023-02-19T09:17:26.461Z,43.98
2023-02-19T09:19:58.040Z,38.91
2023-02-19T09:22:29.769Z,41.13
2023-02-19T09:25:01.755Z,42.45
2023-02-19T09:27:33.360Z,43.02
2023-02-19T09:30:05.317Z,34.90
2023-02-19T09:32:37.094Z,30.87
2023-02-19T09:35:08.683Z,30.23
2023-02-19T09:37:40.301Z,28.92
2023-02-19T09:40:12.791Z,28.17
2023-02-19T09:42:44.468Z,28.90
2023-02-19T09:45:24.231Z,26.91
2023-02-19T09:47:58.612Z,25.52
2023-02-19T09:50:39.153Z,25.39
2023-02-19T09:53:26.381Z,22.67
2023-02-19T09:55:59.763Z,24.33
2023-02-19T09:58:35.359Z,23.78
2023-02-19T10:01:11.204Z,23.43
2023-02-19T10:03:49.014Z,29.17
2023-02-19T10:06:23.646Z,29.13
2023-02-19T10:09:23.644Z,28.94
2023-02-19T10:11:58.141Z,29.56
2023-02-19T10:14:51.128Z,28.47
2023-02-19T10:17:26.807Z,27.41
2023-02-19T10:19:58.502Z,25.26
2023-02-19T10:22:35.060Z,25.62
2023-02-19T10:25:07.626Z,27.33
2023-02-19T10:27:39.314Z,28.08
2023-02-19T10:30:22.447Z,30.34
2023-02-19T10:33:04.180Z,29.69
2023-02-19T10:35:51.086Z,29.53
2023-02-19T10:38:39.139Z,26.44
2023-02-19T10:41:30.782Z,25.04
2023-02-19T10:44:14.046Z,26.20
2023-02-19T10:46:49.752Z,24.55
2023-02-19T10:49:27.432Z,24.88
2023-02-19T10:52:10.467Z,24.85
2023-02-19T10:54:42.020Z,24.63
2023-02-19T10:57:19.511Z,26.19
2023-02-19T11:00:00.187Z,26.10
2023-02-19T11:02:31.883Z,23.84
2023-02-19T11:05:12.002Z,27.48
2023-02-19T11:07:56.335Z,25.84
2023-02-19T11:10:33.534Z,24.08
2023-02-19T11:13:13.593Z,22.94
2023-02-19T11:15:53.300Z,21.83
2023-02-19T11:18:31.766Z,23.32
2023-02-19T11:21:07.853Z,21.93
2023-02-19T11:23:47.090Z,22.54
2023-02-19T11:26:24.031Z,24.73
2023-02-19T11:29:01.029Z,24.26
2023-02-19T11:31:33.774Z,23.96
2023-02-19T11:34:14.354Z,21.83
2023-02-19T11:36:46.033Z,21.53
2023-02-19T11:39:17.602Z,22.40
2023-02-19T11:42:04.043Z,23.96
2023-02-19T11:45:01.839Z,28.09
2023-02-19T11:47:45.835Z,29.69
2023-02-19T11:50:53.429Z,31.02
2023-02-19T11:53:31.815Z,33.98
2023-02-19T11:56:18.173Z,31.64
2023-02-19T11:59:01.435Z,30.21
2023-02-19T12:01:54.251Z,28.13
2023-02-19T12:05:01.261Z,25.69
2023-02-19T12:07:51.145Z,25.83
2023-02-19T12:10:38.715Z,26.28
2023-02-19T12:13:13.407Z,24.36
2023-02-19T12:16:14.420Z,26.73
2023-02-19T12:19:37.247Z,27.61
2023-02-19T12:22:39.638Z,29.91
2023-02-19T12:26:02.570Z,29.03
2023-02-19T12:28:58.651Z,29.40
2023-02-19T12:31:45.087Z,28.48
2023-02-19T12:34:35.132Z,28.89
2023-02-19T12:37:43.764Z,29.51
2023-02-19T12:40:15.484Z,27.59
2023-02-19T12:43:11.022Z,29.66
2023-02-19T12:46:01.801Z,28.63
2023-02-19T12:48:47.330Z,28.05
2023-02-19T12:51:25.029Z,26.14
2023-02-19T12:54:43.313Z,26.80
2023-02-19T12:57:26.964Z,26.33
2023-02-19T13:00:18.504Z,28.38
2023-02-19T13:03:19.013Z,27.97
2023-02-19T13:06:27.259Z,30.38
2023-02-19T13:09:06.717Z,28.83
2023-02-19T13:11:48.541Z,30.18
2023-02-19T13:14:25.962Z,31.13
2023-02-19T13:17:02.790Z,31.70
2023-02-19T13:19:36.508Z,30.89
2023-02-19T13:22:46.094Z,31.10
2023-02-19T13:25:20.669Z,31.67
2023-02-19T13:28:13.050Z,33.66
2023-02-19T13:30:56.936Z,32.95
2023-02-19T13:33:28.527Z,33.61
2023-02-19T13:36:10.480Z,35.07
2023-02-19T13:38:47.220Z,35.19
2023-02-19T13:41:29.874Z,35.01
2023-02-19T13:44:05.773Z,34.69
2023-02-19T13:46:46.113Z,33.78
2023-02-19T13:49:29.541Z,31.50
2023-02-19T13:52:04.170Z,33.12
2023-02-19T13:54:36.527Z,33.42
2023-02-19T13:57:31.167Z,35.33
2023-02-19T14:00:41.346Z,35.91
2023-02-19T14:03:28.978Z,36.51
2023-02-19T14:06:05.081Z,35.91
2023-02-19T14:08:57.801Z,38.04
2023-02-19T14:11:41.358Z,36.44
2023-02-19T14:14:34.069Z,37.59
2023-02-19T14:17:08.525Z,37.16
2023-02-19T14:19:44.356Z,36.05
2023-02-19T14:22:46.849Z,35.36
2023-02-19T14:25:27.488Z,34.28
2023-02-19T14:28:11.165Z,36.05
2023-02-19T14:30:55.886Z,33.91
2023-02-19T14:33:35.064Z,38.14
2023-02-19T14:36:16.935Z,39.13
2023-02-19T14:38:52.889Z,36.88
2023-02-19T14:41:27.388Z,39.54
2023-02-19T14:44:02.168Z,40.67
2023-02-19T14:46:43.026Z,39.26
2023-02-19T14:49:41.916Z,35.49
2023-02-19T14:52:44.400Z,32.51
2023-02-19T14:55:35.767Z,28.05
2023-02-19T14:58:18.537Z,26.29
2023-02-19T15:00:50.120Z,27.79
2023-02-19T15:03:25.840Z,26.00
2023-02-19T15:06:06.087Z,24.77
2023-02-19T15:08:46.648Z,26.96
2023-02-19T15:11:25.557Z,25.88
2023-02-19T15:14:08.563Z,27.67
2023-02-19T15:16:40.401Z,29.16
2023-02-19T15:19:17.158Z,31.16
2023-02-19T15:21:49.416Z,32.78
2023-02-19T15:24:21.286Z,34.19
2023-02-19T15:26:55.112Z,36.48
2023-02-19T15:29:27.746Z,40.62
2023-02-19T15:32:01.202Z,41.84
2023-02-19T15:34:33.226Z,44.26
2023-02-19T15:37:08.956Z,46.19
2023-02-19T15:39:53.070Z,45.92
2023-02-19T15:42:29.486Z,45.67
2023-02-19T15:45:16.273Z,45.37
2023-02-19T15:48:08.233Z,46.46
2023-02-19T15:50:47.591Z,46.89
2023-02-19T15:53:24.429Z,45.66
2023-02-19T15:56:33.472Z,45.81
2023-02-19T15:59:34.017Z,46.31
2023-02-19T16:02:13.485Z,47.26
2023-02-19T16:04:46.037Z,47.76
2023-02-19T16:07:26.968Z,49.63
2023-02-19T16:10:18.621Z,50.72
2023-02-19T16:12:58.592Z,51.84
2023-02-19T16:15:32.226Z,51.93
2023-02-19T16:18:04.823Z,50.61
2023-02-19T16:20:36.539Z,49.41
2023-02-19T16:23:18.444Z,48.96
2023-02-19T16:25:59.220Z,48.37
2023-02-19T16:28:40.273Z,47.54
2023-02-19T16:31:14.263Z,50.56
2023-02-19T16:33:48.699Z,50.96
2023-02-19T16:36:29.414Z,50.81
2023-02-19T16:39:07.180Z,49.79
2023-02-19T16:41:45.041Z,50.22
2023-02-19T16:44:27.591Z,49.66
2023-02-19T16:47:12.581Z,50.90
2023-02-19T16:49:44.500Z,51.28
2023-02-19T16:52:16.502Z,51.30
2023-02-19T16:54:49.336Z,52.26
2023-02-19T16:57:21.383Z,52.26
2023-02-19T16:59:53.224Z,52.32
2023-02-19T17:02:25.924Z,52.94
2023-02-19T17:04:57.642Z,53.47
2023-02-19T17:07:29.477Z,54.82
2023-02-19T17:10:01.075Z,54.56
2023-02-19T17:12:33.193Z,54.21
2023-02-19T17:15:05.051Z,53.92
2023-02-19T17:17:36.624Z,55.74
2023-02-19T17:20:17.348Z,56.37
2023-02-19T17:22:48.962Z,56.09
2023-02-19T17:25:20.985Z,55.93
2023-02-19T17:27:52.571Z,56.35
2023-02-19T17:30:29.704Z,57.55
2023-02-19T17:33:01.741Z,56.77
2023-02-19T17:35:33.368Z,56.78
2023-02-19T17:38:04.969Z,57.22
2023-02-19T17:40:36.786Z,57.45
2023-02-19T17:43:08.558Z,57.29
2023-02-19T17:45:40.316Z,57.30
2023-02-19T17:48:14.142Z,57.05
2023-02-19T17:50:45.761Z,57.19
2023-02-19T17:53:17.330Z,58.42
2023-02-19T17:55:49.026Z,58.96
2023-02-19T17:58:20.618Z,58.49
2023-02-19T18:00:52.535Z,59.39
2023-02-19T18:03:24.654Z,59.29
2023-02-19T18:05:56.946Z,58.80
2023-02-19T18:08:28.857Z,59.93
2023-02-19T18:11:00.445Z,59.70
2023-02-19T18:13:32.053Z,59.25
2023-02-19T18:16:05.663Z,59.24
2023-02-19T18:18:37.662Z,58.94
2023-02-19T18:21:10.842Z,58.80
2023-02-19T18:23:43.269Z,59.51
2023-02-19T18:26:20.035Z,59.22
2023-02-19T18:28:51.678Z,59.06
2023-02-19T18:31:23.359Z,58.79
2023-02-19T18:33:55.130Z,59.26
2023-02-19T18:36:26.725Z,58.46
2023-02-19T18:38:58.300Z,60.33
2023-02-19T18:41:30.150Z,59.81
2023-02-19T18:44:01.907Z,60.34
2023-02-19T18:46:33.831Z,59.53
2023-02-19T18:49:05.509Z,58.96
2023-02-19T18:51:37.098Z,59.52
2023-02-19T18:54:08.797Z,58.27
2023-02-19T18:56:44.798Z,59.74
2023-02-19T18:59:16.885Z,59.86
2023-02-19T19:01:49.210Z,59.66
2023-02-19T19:04:21.082Z,59.66
2023-02-19T19:06:53.007Z,59.35
2023-02-19T19:09:24.683Z,58.21
2023-02-19T19:11:56.355Z,58.53
2023-02-19T19:14:28.095Z,59.16
2023-02-19T19:16:59.952Z,58.31
2023-02-19T19:19:31.667Z,58.89
2023-02-19T19:22:06.260Z,58.30
2023-02-19T19:24:38.223Z,58.93
2023-02-19T19:27:09.951Z,58.63
2023-02-19T19:29:41.690Z,59.50
2023-02-19T19:32:15.402Z,59.38
2023-02-19T19:34:47.096Z,59.71
2023-02-19T19:37:18.815Z,60.80
2023-02-19T19:39:50.944Z,60.95
2023-02-19T19:42:31.516Z,61.37
2023-02-19T19:45:04.038Z,60.34
2023-02-19T19:47:35.760Z,60.40
2023-02-19T19:50:07.607Z,61.81
2023-02-19T19:52:39.293Z,60.83
2023-02-19T19:55:13.141Z,60.72
2023-02-19T19:57:48.559Z,61.14
2023-02-19T20:00:20.665Z,59.92
2023-02-19T20:02:52.359Z,59.65
2023-02-19T20:05:24.086Z,58.73
2023-02-19T20:07:55.698Z,58.13
2023-02-19T20:10:27.546Z,58.69
2023-02-19T20:13:02.468Z,58.97
2023-02-19T20:15:34.208Z,58.18
2023-02-19T20:18:05.849Z,58.68
2023-02-19T20:20:37.874Z,57.86
2023-02-19T20:23:09.583Z,57.69
2023-02-19T20:25:41.395Z,58.93
2023-02-19T20:28:13.103Z,58.89
2023-02-19T20:30:44.831Z,59.58
2023-02-19T20:33:16.647Z,59.52
2023-02-19T20:35:48.285Z,60.42
2023-02-19T20:38:19.987Z,60.33
2023-02-19T20:40:51.605Z,59.87
2023-02-19T20:43:23.198Z,60.42
2023-02-19T20:45:54.823Z,59.64
2023-02-19T20:48:26.422Z,59.59
2023-02-19T20:50:58.042Z,60.89
2023-02-19T20:53:30.818Z,61.01
2023-02-19T20:56:02.488Z,61.35
2023-02-19T20:58:34.101Z,60.14
2023-02-19T21:01:05.778Z,60.37
2023-02-19T21:03:37.442Z,60.42
2023-02-19T21:06:08.995Z,59.37
2023-02-19T21:08:40.639Z,60.28
2023-02-19T21:11:12.268Z,59.16
2023-02-19T21:13:43.963Z,59.60
2023-02-19T21:16:15.946Z,61.20
2023-02-19T21:18:47.596Z,61.26
2023-02-19T21:21:21.077Z,58.98
2023-02-19T21:23:53.830Z,57.91
2023-02-19T21:26:33.499Z,58.45
2023-02-19T21:29:07.130Z,58.51
2023-02-19T21:31:42.621Z,60.48
2023-02-19T21:34:16.855Z,61.13
2023-02-19T21:36:48.797Z,60.63
2023-02-19T21:39:23.016Z,60.73
2023-02-19T21:41:54.644Z,60.63
2023-02-19T21:44:26.274Z,61.69
2023-02-19T21:46:57.909Z,62.57
2023-02-19T21:49:29.511Z,61.69
2023-02-19T21:52:01.149Z,60.46
2023-02-19T21:54:32.789Z,61.96
2023-02-19T21:57:04.433Z,61.28
2023-02-19T21:59:36.094Z,61.95
2023-02-19T22:02:08.851Z,61.14
2023-02-19T22:04:40.550Z,61.63
2023-02-19T22:07:12.697Z,62.71
2023-02-19T22:09:44.282Z,62.64
2023-02-19T22:12:16.704Z,63.03
2023-02-19T22:14:48.314Z,63.23
2023-02-19T22:17:20.465Z,62.72
2023-02-19T22:19:52.205Z,63.18
2023-02-19T22:22:23.799Z,63.30
2023-02-19T22:24:55.397Z,63.89
2023-02-19T22:27:28.666Z,63.74
2023-02-19T22:30:00.946Z,62.90
2023-02-19T22:32:32.528Z,61.91
2023-02-19T22:35:04.218Z,61.82
2023-02-19T22:37:35.861Z,61.83
2023-02-19T22:40:07.946Z,61.96
2023-02-19T22:42:39.628Z,61.01
2023-02-19T22:45:12.017Z,61.87
2023-02-19T22:47:43.714Z,62.05
2023-02-19T22:50:20.409Z,63.02
2023-02-19T22:52:52.207Z,63.27
2023-02-19T22:55:23.753Z,62.94
2023-02-19T22:57:55.315Z,61.97
2023-02-19T23:00:26.909Z,62.20
2023-02-19T23:02:59.632Z,61.80
2023-02-19T23:05:31.248Z,63.24
2023-02-19T23:08:02.947Z,62.97
2023-02-19T23:10:34.505Z,63.62
2023-02-19T23:13:06.212Z,62.59
2023-02-19T23:15:37.845Z,63.70
2023-02-19T23:18:09.442Z,63.22
2023-02-19T23:20:41.340Z,63.36
2023-02-19T23:23:12.909Z,62.56
2023-02-19T23:25:44.531Z,61.28
2023-02-19T23:28:16.154Z,60.49
2023-02-19T23:30:47.906Z,61.23
2023-02-19T23:33:19.497Z,60.04
2023-02-19T23:35:51.305Z,61.58
2023-02-19T23:38:23.058Z,61.13
2023-02-19T23:40:54.676Z,60.61
2023-02-19T23:43:26.439Z,59.52
2023-02-19T23:45:58.046Z,59.03
2023-02-19T23:48:30.161Z,59.67
2023-02-19T23:51:01.782Z,59.52
2023-02-19T23:53:33.393Z,59.39
2023-02-19T23:56:05.682Z,59.08
2023-02-19T23:58:37.341Z,60.42
